Time;durP1;ratioP1;P1;durP2;ratioP2;P2;SDS_P1;SDS_P2;PMS_P1;PMS_P2;Temp;Humidity;BMP_temperature;BMP_pressure;BME280_temperature;BME280_humidity;BME280_pressure;Samples;Min_cycle;Max_cycle;Signal;HPM_P1;HPM_P2
2022/04/27 00:00:17;;;;;;;24.40;22.70;;;;;;;;;;5015626;28;20229;-85
2022/04/27 00:02:45;;;;;;;24.45;22.85;;;;;;;;;;5015624;28;20886;-86
2022/04/27 00:05:14;;;;;;;25.40;23.90;;;;;;;;;;5015889;28;20198;-85
2022/04/27 00:07:41;;;;;;;24.63;22.83;;;;;;;;;;5015480;28;20444;-85
2022/04/27 00:10:09;;;;;;;25.50;23.77;;;;;;;;;;5015761;28;20890;-85
2022/04/27 00:12:37;;;;;;;25.20;23.63;;;;;;;;;;5015775;28;20464;-85
2022/04/27 00:15:04;;;;;;;25.70;23.70;;;;;;;;;;5015575;28;20487;-85
2022/04/27 00:17:32;;;;;;;23.70;22.00;;;;;;;;;;5015165;28;20484;-85
2022/04/27 00:19:59;;;;;;;24.67;22.87;;;;;;;;;;5015057;28;20436;-85
2022/04/27 00:22:28;;;;;;;24.83;23.10;;;;;;;;;;5015434;28;20896;-86
2022/04/27 00:25:00;;;;;;;25.40;23.77;;;;;;;;;;5015669;28;20445;-85
2022/04/27 00:27:27;;;;;;;26.20;24.50;;;;;;;;;;5015223;28;20853;-85
2022/04/27 00:29:55;;;;;;;27.10;25.40;;;;;;;;;;5015123;28;20206;-85
2022/04/27 00:32:22;;;;;;;24.90;23.20;;;;;;;;;;5015028;28;20455;-85
2022/04/27 00:34:49;;;;;;;25.07;23.50;;;;;;;;;;5015282;28;20420;-85
2022/04/27 00:37:18;;;;;;;25.50;23.80;;;;;;;;;;5014485;28;20454;-85
2022/04/27 00:39:47;;;;;;;25.03;23.43;;;;;;;;;;5015026;28;20805;-85
2022/04/27 00:42:15;;;;;;;26.83;25.03;;;;;;;;;;5014731;28;20459;-85
2022/04/27 00:44:44;;;;;;;26.17;24.17;;;;;;;;;;5014791;28;20469;-85
2022/04/27 00:47:11;;;;;;;25.95;23.95;;;;;;;;;;5014677;28;20430;-85
2022/04/27 00:49:41;;;;;;;26.20;24.40;;;;;;;;;;5014759;28;20203;-85
2022/04/27 00:52:12;;;;;;;26.33;24.23;;;;;;;;;;5014837;28;20425;-85
2022/04/27 00:54:40;;;;;;;26.40;24.20;;;;;;;;;;5014929;28;20424;-85
2022/04/27 00:57:09;;;;;;;26.07;24.27;;;;;;;;;;5014767;28;20786;-85
2022/04/27 00:59:37;;;;;;;27.50;25.30;;;;;;;;;;5014642;28;20445;-85
2022/04/27 01:02:05;;;;;;;26.63;24.67;;;;;;;;;;5014605;28;20438;-85
2022/04/27 01:04:32;;;;;;;26.53;24.77;;;;;;;;;;5014854;28;20419;-84
2022/04/27 01:06:59;;;;;;;26.80;24.77;;;;;;;;;;5014704;28;20416;-85
2022/04/27 01:09:27;;;;;;;26.97;24.87;;;;;;;;;;5014634;28;20955;-86
2022/04/27 01:11:55;;;;;;;27.50;25.10;;;;;;;;;;5014117;28;20427;-84
2022/04/27 01:14:23;;;;;;;27.10;24.77;;;;;;;;;;5014078;28;20438;-84
2022/04/27 01:16:54;;;;;;;26.97;24.97;;;;;;;;;;5013851;28;20458;-85
2022/04/27 01:19:23;;;;;;;27.73;25.50;;;;;;;;;;5013723;28;20429;-84
2022/04/27 01:21:52;;;;;;;27.65;25.50;;;;;;;;;;5013795;28;20465;-84
2022/04/27 01:24:20;;;;;;;27.20;25.40;;;;;;;;;;5013805;28;20232;-84
2022/04/27 01:26:49;;;;;;;27.33;25.53;;;;;;;;;;5014054;28;20440;-84
2022/04/27 01:29:17;;;;;;;26.77;24.97;;;;;;;;;;5014040;28;20803;-84
2022/04/27 01:31:44;;;;;;;26.93;24.97;;;;;;;;;;5013660;28;20455;-85
2022/04/27 01:34:12;;;;;;;26.03;24.33;;;;;;;;;;5013893;28;20420;-84
2022/04/27 01:36:39;;;;;;;27.65;25.65;;;;;;;;;;5014040;28;20433;-84
2022/04/27 01:39:08;;;;;;;28.60;25.90;;;;;;;;;;5013955;28;20222;-85
2022/04/27 01:41:36;;;;;;;26.53;24.60;;;;;;;;;;5013689;28;20438;-84
2022/04/27 01:44:04;;;;;;;27.37;25.37;;;;;;;;;;5013909;28;20507;-85
2022/04/27 01:46:32;;;;;;;28.00;25.45;;;;;;;;;;5013759;28;20427;-85
2022/04/27 01:49:00;;;;;;;27.90;26.00;;;;;;;;;;5013458;28;20202;-84
2022/04/27 01:54:18;;;;;;;27.50;25.40;;;;;;;;;;5012778;28;20200;-85
2022/04/27 01:56:46;;;;;;;26.47;24.67;;;;;;;;;;5013589;28;20197;-83
2022/04/27 01:59:13;;;;;;;27.20;25.40;;;;;;;;;;5013594;28;20408;-85
2022/04/27 02:01:41;;;;;;;28.08;26.08;;;;;;;;;;5013335;28;20416;-85
2022/04/27 02:04:09;;;;;;;26.60;24.90;;;;;;;;;;5013513;28;20284;-85
2022/04/27 02:06:36;;;;;;;28.38;25.88;;;;;;;;;;5013659;28;20197;-84
2022/04/27 02:09:05;;;;;;;28.00;25.93;;;;;;;;;;5013311;28;20712;-84
2022/04/27 02:11:33;;;;;;;28.55;25.95;;;;;;;;;;5013630;28;20525;-84
2022/04/27 02:14:01;;;;;;;27.75;25.65;;;;;;;;;;5013381;28;20194;-85
2022/04/27 02:16:29;;;;;;;28.43;26.33;;;;;;;;;;5013278;28;20242;-84
2022/04/27 02:18:57;;;;;;;27.60;25.43;;;;;;;;;;5013276;28;20450;-85
2022/04/27 02:21:25;;;;;;;27.77;25.52;;;;;;;;;;5013742;28;20457;-84
2022/04/27 02:23:53;;;;;;;27.17;25.38;;;;;;;;;;5014062;28;20218;-84
2022/04/27 02:26:21;;;;;;;27.30;25.20;;;;;;;;;;5013073;28;20200;-85
2022/04/27 02:28:50;;;;;;;27.45;25.05;;;;;;;;;;5013188;28;20703;-85
2022/04/27 02:31:17;;;;;;;28.63;26.23;;;;;;;;;;5013401;28;20195;-85
2022/04/27 02:33:45;;;;;;;28.17;25.73;;;;;;;;;;5013317;28;20198;-84
2022/04/27 02:36:12;;;;;;;26.65;24.52;;;;;;;;;;5013151;28;20411;-85
2022/04/27 02:38:40;;;;;;;28.13;26.03;;;;;;;;;;5013277;28;20282;-84
2022/04/27 02:41:10;;;;;;;26.55;24.85;;;;;;;;;;5013590;28;20504;-85
2022/04/27 02:43:37;;;;;;;27.13;25.23;;;;;;;;;;5013139;28;20739;-85
2022/04/27 02:46:06;;;;;;;26.70;24.65;;;;;;;;;;5013219;28;20187;-85
2022/04/27 02:48:33;;;;;;;28.35;26.08;;;;;;;;;;5013181;28;20194;-85
2022/04/27 02:53:47;;;;;;;28.05;26.02;;;;;;;;;;5013026;28;20539;-85
2022/04/27 02:56:14;;;;;;;27.50;25.60;;;;;;;;;;4995477;28;20233;-84
2022/04/27 02:58:41;;;;;;;27.27;25.40;;;;;;;;;;5013225;28;20907;-85
2022/04/27 03:01:10;;;;;;;28.70;26.33;;;;;;;;;;5014444;28;20195;-84
2022/04/27 03:03:38;;;;;;;29.08;26.55;;;;;;;;;;5016682;28;20229;-86
2022/04/27 03:06:05;;;;;;;28.25;25.95;;;;;;;;;;5016906;28;20260;-85
2022/04/27 03:08:32;;;;;;;27.60;25.58;;;;;;;;;;5016636;28;20198;-85
2022/04/27 03:11:00;;;;;;;27.35;25.23;;;;;;;;;;5016836;28;20190;-85
2022/04/27 03:13:28;;;;;;;28.02;26.13;;;;;;;;;;5016526;28;20237;-85
2022/04/27 03:15:55;;;;;;;28.40;26.40;;;;;;;;;;5016352;28;20229;-84
2022/04/27 03:18:24;;;;;;;28.80;26.70;;;;;;;;;;5016440;28;20194;-85
2022/04/27 03:20:51;;;;;;;29.15;27.05;;;;;;;;;;5016436;28;20209;-85
2022/04/27 03:23:19;;;;;;;28.58;26.27;;;;;;;;;;5016247;28;20214;-83
2022/04/27 03:25:47;;;;;;;29.92;27.42;;;;;;;;;;5016395;28;20206;-85
2022/04/27 03:28:14;;;;;;;28.25;26.15;;;;;;;;;;5016066;28;20197;-85
2022/04/27 03:30:41;;;;;;;26.50;24.55;;;;;;;;;;4998619;28;20614;-84
2022/04/27 03:33:09;;;;;;;28.30;25.98;;;;;;;;;;5016223;28;20264;-84
2022/04/27 03:35:38;;;;;;;27.60;25.52;;;;;;;;;;5016091;28;20194;-85
2022/04/27 03:38:07;;;;;;;29.00;26.65;;;;;;;;;;5015924;28;20194;-85
2022/04/27 03:40:34;;;;;;;28.05;25.60;;;;;;;;;;5015657;28;20204;-85
2022/04/27 03:43:01;;;;;;;29.58;27.20;;;;;;;;;;5015736;28;20202;-84
2022/04/27 03:45:29;;;;;;;27.80;25.70;;;;;;;;;;5015740;28;20205;-84
2022/04/27 03:47:56;;;;;;;28.77;26.37;;;;;;;;;;5016100;28;20445;-84
2022/04/27 03:50:23;;;;;;;26.90;25.00;;;;;;;;;;5016078;28;20427;-84
2022/04/27 03:52:52;;;;;;;29.13;26.73;;;;;;;;;;5015728;28;20707;-83
2022/04/27 03:55:20;;;;;;;29.65;27.30;;;;;;;;;;5015750;28;20202;-85
2022/04/27 03:57:47;;;;;;;27.98;25.90;;;;;;;;;;5015855;28;20198;-84
2022/04/27 04:00:14;;;;;;;27.65;25.45;;;;;;;;;;5015630;28;20212;-85
2022/04/27 04:02:42;;;;;;;28.90;26.20;;;;;;;;;;5015131;28;20645;-84
2022/04/27 04:05:09;;;;;;;28.73;26.23;;;;;;;;;;5015647;28;20217;-85
2022/04/27 04:07:37;;;;;;;28.50;26.50;;;;;;;;;;5015253;28;20240;-84
2022/04/27 04:10:06;;;;;;;28.70;26.43;;;;;;;;;;5015252;28;20425;-84
2022/04/27 04:12:34;;;;;;;28.37;26.30;;;;;;;;;;5015226;28;20416;-85
2022/04/27 04:15:02;;;;;;;27.98;25.85;;;;;;;;;;5015179;28;20416;-83
2022/04/27 04:17:29;;;;;;;28.50;26.48;;;;;;;;;;5015192;28;20232;-84
2022/04/27 04:19:57;;;;;;;29.35;27.38;;;;;;;;;;5015289;28;20202;-85
2022/04/27 04:22:24;;;;;;;28.63;26.40;;;;;;;;;;5015239;28;20637;-85
2022/04/27 04:30:22;;;;;;;27.83;25.95;;;;;;;;;;5014940;28;20252;-84
2022/04/27 04:32:50;;;;;;;26.88;25.10;;;;;;;;;;5014736;28;20186;-84
2022/04/27 04:35:17;;;;;;;27.10;25.20;;;;;;;;;;5014600;28;20651;-84
2022/04/27 04:37:44;;;;;;;28.27;25.90;;;;;;;;;;5014777;28;20416;-84
2022/04/27 04:40:12;;;;;;;28.27;26.27;;;;;;;;;;5014840;28;20453;-83
2022/04/27 04:42:41;;;;;;;27.92;25.92;;;;;;;;;;5014656;28;20186;-85
2022/04/27 04:45:09;;;;;;;27.80;25.67;;;;;;;;;;5014984;28;20222;-85
2022/04/27 04:47:36;;;;;;;29.05;26.83;;;;;;;;;;5014683;28;20965;-84
2022/04/27 04:50:04;;;;;;;28.70;26.53;;;;;;;;;;5014870;28;20190;-84
2022/04/27 04:52:31;;;;;;;30.63;27.92;;;;;;;;;;5014798;28;20461;-84
2022/04/27 04:54:59;;;;;;;31.23;27.55;;;;;;;;;;5014471;28;20198;-84
2022/04/27 04:57:26;;;;;;;28.40;26.33;;;;;;;;;;5014871;28;20549;-84
2022/04/27 04:59:55;;;;;;;29.48;26.80;;;;;;;;;;5014850;28;20198;-85
2022/04/27 05:02:22;;;;;;;31.80;28.00;;;;;;;;;;5014192;28;20656;-84
2022/04/27 05:04:50;;;;;;;29.77;27.20;;;;;;;;;;5014383;28;20492;-85
2022/04/27 05:07:18;;;;;;;29.02;26.83;;;;;;;;;;5014168;28;20431;-84
2022/04/27 05:09:46;;;;;;;29.03;26.70;;;;;;;;;;5014502;28;20186;-85
2022/04/27 05:12:13;;;;;;;28.58;26.48;;;;;;;;;;5014175;28;20531;-85
2022/04/27 05:14:41;;;;;;;29.83;27.17;;;;;;;;;;5014432;28;20202;-85
2022/04/27 05:17:09;;;;;;;29.23;26.40;;;;;;;;;;5014310;28;20488;-85
2022/04/27 05:19:37;;;;;;;28.07;25.77;;;;;;;;;;5014130;28;20457;-85
2022/04/27 05:22:05;;;;;;;28.37;25.97;;;;;;;;;;4996756;28;20416;-85
2022/04/27 05:24:33;;;;;;;29.03;26.27;;;;;;;;;;5013480;28;20455;-86
2022/04/27 05:27:00;;;;;;;29.53;27.10;;;;;;;;;;5014540;28;20412;-85
2022/04/27 05:32:13;;;;;;;29.57;27.17;;;;;;;;;;5013752;28;20432;-84
2022/04/27 05:34:41;;;;;;;28.53;26.63;;;;;;;;;;5013972;28;20528;-85
2022/04/27 05:37:08;;;;;;;28.63;26.40;;;;;;;;;;5013915;28;20927;-85
2022/04/27 05:39:36;;;;;;;29.17;26.50;;;;;;;;;;5013731;28;20475;-85
2022/04/27 05:42:03;;;;;;;28.87;26.77;;;;;;;;;;4996133;28;20449;-84
2022/04/27 05:44:31;;;;;;;29.97;27.47;;;;;;;;;;5013423;28;20961;-85
2022/04/27 05:46:59;;;;;;;29.10;27.00;;;;;;;;;;5013567;28;20442;-85
2022/04/27 05:49:28;;;;;;;27.97;25.50;;;;;;;;;;5013566;28;20449;-85
2022/04/27 05:51:55;;;;;;;29.30;26.63;;;;;;;;;;5013676;28;20453;-85
2022/04/27 05:54:22;;;;;;;29.10;27.10;;;;;;;;;;5013395;28;20190;-84
2022/04/27 05:56:50;;;;;;;28.38;26.35;;;;;;;;;;5014004;28;20463;-85
2022/04/27 05:59:17;;;;;;;28.33;26.27;;;;;;;;;;5013539;28;20222;-84
2022/04/27 06:01:45;;;;;;;30.80;28.30;;;;;;;;;;4995547;28;20498;-85
2022/04/27 06:04:13;;;;;;;27.85;25.85;;;;;;;;;;5013612;28;20505;-85
2022/04/27 06:06:42;;;;;;;28.07;26.03;;;;;;;;;;5013624;28;20201;-85
2022/04/27 06:09:09;;;;;;;28.40;26.20;;;;;;;;;;5013571;28;20419;-85
2022/04/27 06:11:36;;;;;;;29.20;26.60;;;;;;;;;;5013976;28;20411;-84
2022/04/27 06:14:04;;;;;;;29.23;26.87;;;;;;;;;;5013689;28;20428;-85
2022/04/27 06:16:34;;;;;;;27.70;25.40;;;;;;;;;;5013438;28;20495;-84
2022/04/27 06:19:01;;;;;;;27.83;25.73;;;;;;;;;;5013243;28;20198;-84
2022/04/27 06:21:31;;;;;;;29.00;26.50;;;;;;;;;;4996498;28;20453;-85
2022/04/27 06:24:00;;;;;;;29.30;27.00;;;;;;;;;;5013262;28;20487;-85
2022/04/27 06:26:30;;;;;;;29.80;26.93;;;;;;;;;;5013610;28;20438;-85
2022/04/27 06:28:58;;;;;;;28.50;26.17;;;;;;;;;;5013114;28;20910;-85
2022/04/27 06:31:25;;;;;;;29.42;27.17;;;;;;;;;;5013134;28;20433;-85
2022/04/27 06:33:52;;;;;;;27.70;25.60;;;;;;;;;;5013238;28;20194;-85
2022/04/27 06:36:20;;;;;;;27.20;25.20;;;;;;;;;;5015021;28;20497;-85
2022/04/27 06:38:47;;;;;;;26.67;24.63;;;;;;;;;;5017077;28;20835;-85
2022/04/27 06:41:16;;;;;;;27.57;25.40;;;;;;;;;;5017115;28;20408;-85
2022/04/27 06:43:43;;;;;;;26.00;24.30;;;;;;;;;;5017174;28;20441;-85
2022/04/27 06:46:11;;;;;;;26.87;24.93;;;;;;;;;;5017043;28;20440;-85
2022/04/27 06:48:38;;;;;;;26.90;24.87;;;;;;;;;;5016707;28;20991;-85
2022/04/27 06:51:05;;;;;;;27.13;24.93;;;;;;;;;;5017093;28;20458;-84
2022/04/27 06:53:33;;;;;;;27.70;25.30;;;;;;;;;;5016866;28;20472;-84
2022/04/27 06:56:00;;;;;;;27.87;25.43;;;;;;;;;;5017237;28;20790;-85
2022/04/27 06:58:29;;;;;;;26.93;24.87;;;;;;;;;;4999420;28;21012;-85
2022/04/27 07:00:56;;;;;;;27.07;24.77;;;;;;;;;;5016984;28;20907;-84
2022/04/27 07:03:23;;;;;;;27.63;25.67;;;;;;;;;;5016706;28;20900;-85
2022/04/27 07:05:51;;;;;;;25.70;24.00;;;;;;;;;;5016775;28;20463;-87
2022/04/27 07:08:18;;;;;;;27.47;25.10;;;;;;;;;;5017111;28;20416;-88
2022/04/27 07:10:46;;;;;;;27.23;25.07;;;;;;;;;;5016948;28;20416;-85
2022/04/27 07:13:13;;;;;;;26.07;24.27;;;;;;;;;;5016810;28;20416;-86
2022/04/27 07:15:42;;;;;;;25.55;23.70;;;;;;;;;;4999020;28;21305;-86
2022/04/27 07:18:10;;;;;;;25.07;23.17;;;;;;;;;;5016419;28;20191;-85
2022/04/27 07:20:37;;;;;;;27.20;24.77;;;;;;;;;;5016407;28;20445;-85
2022/04/27 07:23:05;;;;;;;26.67;24.80;;;;;;;;;;5016650;28;20803;-92
2022/04/27 07:25:32;;;;;;;26.07;24.27;;;;;;;;;;5016354;28;20945;-83
2022/04/27 07:27:59;;;;;;;26.63;24.83;;;;;;;;;;5016922;28;20449;-85
2022/04/27 07:30:27;;;;;;;27.37;25.17;;;;;;;;;;5016176;28;20525;-83
2022/04/27 07:32:56;;;;;;;27.90;25.60;;;;;;;;;;5016363;28;20436;-85
2022/04/27 07:35:23;;;;;;;27.43;25.50;;;;;;;;;;5017076;28;20464;-86
2022/04/27 07:37:50;;;;;;;27.03;24.90;;;;;;;;;;5016160;28;20456;-86
2022/04/27 07:40:18;;;;;;;26.57;24.77;;;;;;;;;;5016389;28;20412;-86
2022/04/27 07:42:45;;;;;;;26.43;24.17;;;;;;;;;;5016558;28;20446;-86
2022/04/27 07:45:12;;;;;;;26.10;24.20;;;;;;;;;;5016184;28;20455;-85
2022/04/27 07:47:41;;;;;;;26.03;24.00;;;;;;;;;;5015952;28;20485;-86
2022/04/27 07:50:11;;;;;;;26.23;24.30;;;;;;;;;;5016151;28;20433;-85
2022/04/27 07:52:38;;;;;;;26.53;24.53;;;;;;;;;;5016313;28;20453;-86
2022/04/27 07:55:06;;;;;;;26.20;24.30;;;;;;;;;;5016109;28;20989;-86
2022/04/27 07:57:34;;;;;;;25.63;23.73;;;;;;;;;;5016018;28;20408;-85
2022/04/27 08:00:02;;;;;;;25.83;23.73;;;;;;;;;;5016009;28;20938;-86
2022/04/27 08:02:29;;;;;;;26.20;24.33;;;;;;;;;;5016063;28;20412;-85
2022/04/27 08:04:56;;;;;;;26.97;25.17;;;;;;;;;;5015779;28;20455;-86
2022/04/27 08:07:25;;;;;;;27.30;25.23;;;;;;;;;;5015825;28;20442;-86
2022/04/27 08:09:53;;;;;;;27.47;25.20;;;;;;;;;;5016095;28;20463;-86
2022/04/27 08:12:20;;;;;;;25.77;23.83;;;;;;;;;;5015618;28;20408;-86
2022/04/27 08:14:47;;;;;;;28.80;26.53;;;;;;;;;;5015855;28;20427;-85
2022/04/27 08:17:15;;;;;;;28.47;25.43;;;;;;;;;;5015705;28;20474;-86
2022/04/27 08:19:42;;;;;;;26.87;24.83;;;;;;;;;;4998174;28;20419;-85
2022/04/27 08:22:11;;;;;;;27.07;24.97;;;;;;;;;;5015396;28;20431;-86
2022/04/27 08:24:40;;;;;;;26.97;24.50;;;;;;;;;;5015595;28;20525;-86
2022/04/27 08:27:08;;;;;;;27.13;24.73;;;;;;;;;;5015666;28;20453;-86
2022/04/27 08:29:35;;;;;;;26.20;24.00;;;;;;;;;;5015454;28;20412;-86
2022/04/27 08:32:03;;;;;;;26.47;24.30;;;;;;;;;;5015441;28;20433;-85
2022/04/27 08:34:31;;;;;;;26.13;24.43;;;;;;;;;;5015730;28;20448;-86
2022/04/27 08:36:59;;;;;;;26.80;24.90;;;;;;;;;;5015119;28;20404;-86
2022/04/27 08:39:26;;;;;;;26.07;24.10;;;;;;;;;;5015346;28;20498;-84
2022/04/27 08:41:55;;;;;;;26.67;24.77;;;;;;;;;;5015094;28;20433;-85
2022/04/27 08:44:22;;;;;;;27.27;25.10;;;;;;;;;;5015195;28;20760;-86
2022/04/27 08:46:50;;;;;;;27.30;25.07;;;;;;;;;;5015134;28;20429;-86
2022/04/27 08:49:17;;;;;;;27.07;25.07;;;;;;;;;;5015105;28;20460;-85
2022/04/27 08:51:45;;;;;;;27.40;25.50;;;;;;;;;;5015266;28;20766;-86
2022/04/27 08:54:13;;;;;;;28.00;25.70;;;;;;;;;;5015081;28;20420;-85
2022/04/27 08:56:41;;;;;;;27.50;25.20;;;;;;;;;;4997798;28;20457;-86
2022/04/27 08:59:10;;;;;;;26.60;24.60;;;;;;;;;;5013741;28;20926;-85
2022/04/27 09:01:37;;;;;;;25.80;24.10;;;;;;;;;;5015155;28;20420;-86
2022/04/27 09:04:15;;;;;;;27.63;25.13;;;;;;;;;;5014756;28;20468;-86
2022/04/27 09:06:42;;;;;;;27.03;25.17;;;;;;;;;;5014719;28;20494;-86
2022/04/27 09:09:13;;;;;;;27.97;25.73;;;;;;;;;;5014907;28;20465;-86
2022/04/27 09:11:40;;;;;;;28.60;26.20;;;;;;;;;;5014781;28;20420;-85
2022/04/27 09:14:09;;;;;;;28.57;26.37;;;;;;;;;;5014987;28;20424;-85
2022/04/27 09:22:05;;;;;;;26.83;24.93;;;;;;;;;;5014559;28;20399;-86
2022/04/27 09:24:48;;;;;;;28.10;26.00;;;;;;;;;;5014246;28;20423;-86
2022/04/27 09:27:18;;;;;;;28.93;26.70;;;;;;;;;;5014472;28;20416;-86
2022/04/27 09:29:55;;;;;;;28.37;26.20;;;;;;;;;;5014282;28;20982;-86
2022/04/27 09:32:24;;;;;;;28.83;26.70;;;;;;;;;;5014141;28;20480;-85
2022/04/27 09:34:52;;;;;;;30.73;28.33;;;;;;;;;;5014426;28;20451;-88
2022/04/27 09:37:21;;;;;;;30.00;27.43;;;;;;;;;;5014200;28;20423;-85
2022/04/27 09:40:02;;;;;;;29.90;27.40;;;;;;;;;;5013777;28;20479;-85
2022/04/27 09:42:32;;;;;;;27.97;25.87;;;;;;;;;;5014095;28;20899;-86
2022/04/27 09:45:14;;;;;;;29.90;27.80;;;;;;;;;;5014046;28;20469;-86
2022/04/27 09:47:47;;;;;;;30.17;27.77;;;;;;;;;;5014308;28;20420;-84
2022/04/27 09:50:14;;;;;;;29.33;26.90;;;;;;;;;;5014065;28;20477;-86
2022/04/27 09:52:43;;;;;;;30.13;27.90;;;;;;;;;;5014375;28;20416;-86
2022/04/27 09:55:11;;;;;;;29.87;27.70;;;;;;;;;;5014065;28;20790;-87
2022/04/27 09:57:40;;;;;;;29.90;27.60;;;;;;;;;;4996290;28;20500;-86
2022/04/27 10:00:07;;;;;;;29.37;26.70;;;;;;;;;;5013725;28;20416;-85
2022/04/27 10:02:35;;;;;;;29.47;27.10;;;;;;;;;;5013583;28;20841;-85
2022/04/27 10:05:04;;;;;;;29.60;27.50;;;;;;;;;;5014189;28;20961;-84
2022/04/27 10:07:33;;;;;;;27.27;25.37;;;;;;;;;;4980876;28;20839;-85
2022/04/27 10:10:00;;;;;;;27.13;25.13;;;;;;;;;;5015907;28;20867;-85
2022/04/27 10:12:27;;;;;;;28.87;26.57;;;;;;;;;;5020400;28;20412;-85
2022/04/27 10:14:57;;;;;;;27.97;26.07;;;;;;;;;;5020319;28;20456;-85
2022/04/27 10:17:24;;;;;;;28.73;26.57;;;;;;;;;;5019737;28;20474;-84
2022/04/27 10:19:52;;;;;;;28.83;26.60;;;;;;;;;;5020252;28;20444;-84
2022/04/27 10:22:27;;;;;;;28.70;26.80;;;;;;;;;;5019846;28;20495;-85
2022/04/27 10:24:56;;;;;;;26.70;24.90;;;;;;;;;;5020291;28;20757;-85
2022/04/27 10:27:24;;;;;;;28.70;26.60;;;;;;;;;;5020232;28;20431;-85
2022/04/27 10:29:52;;;;;;;29.90;27.70;;;;;;;;;;5020118;28;20780;-85
2022/04/27 10:32:36;;;;;;;28.00;26.17;;;;;;;;;;5020020;28;20551;-85
2022/04/27 10:35:29;;;;;;;29.60;27.37;;;;;;;;;;5019845;28;20507;-85
2022/04/27 10:37:58;;;;;;;30.10;27.60;;;;;;;;;;5019887;28;20472;-85
2022/04/27 10:40:30;;;;;;;30.13;27.53;;;;;;;;;;5019727;28;20441;-85
2022/04/27 10:43:02;;;;;;;29.90;28.00;;;;;;;;;;5020194;28;20445;-85
2022/04/27 10:45:30;;;;;;;28.33;26.53;;;;;;;;;;5019781;28;20488;-85
2022/04/27 10:47:57;;;;;;;29.90;27.50;;;;;;;;;;5019794;28;20419;-85
2022/04/27 10:50:33;;;;;;;28.60;26.60;;;;;;;;;;5019892;28;20835;-84
2022/04/27 10:55:58;;;;;;;29.83;27.63;;;;;;;;;;5126924;27;20549;-82
2022/04/27 10:58:26;;;;;;;28.57;26.67;;;;;;;;;;5110797;28;20437;-82
2022/04/27 11:01:27;;;;;;;29.17;27.20;;;;;;;;;;5093012;28;20423;-82
2022/04/27 11:03:55;;;;;;;28.70;26.73;;;;;;;;;;5110738;28;20436;-82
2022/04/27 11:06:24;;;;;;;29.30;27.40;;;;;;;;;;5110997;28;20461;-83
2022/04/27 11:09:01;;;;;;;27.73;25.90;;;;;;;;;;5109396;28;20485;-80
2022/04/27 11:11:31;;;;;;;28.30;26.40;;;;;;;;;;5110938;28;20436;-82
2022/04/27 11:14:03;;;;;;;31.00;28.73;;;;;;;;;;5110559;28;20948;-82
2022/04/27 11:16:32;;;;;;;29.30;27.23;;;;;;;;;;5110510;28;20443;-82
2022/04/27 11:19:00;;;;;;;30.87;28.77;;;;;;;;;;5110518;28;20411;-80
2022/04/27 11:21:29;;;;;;;29.67;27.40;;;;;;;;;;5110641;28;20918;-83
2022/04/27 11:23:57;;;;;;;28.20;26.27;;;;;;;;;;5110809;28;20444;-83
2022/04/27 11:26:24;;;;;;;28.50;26.60;;;;;;;;;;5110651;28;20416;-83
2022/04/27 11:28:54;;;;;;;30.07;27.83;;;;;;;;;;5110240;28;20444;-83
2022/04/27 11:31:22;;;;;;;29.20;27.30;;;;;;;;;;5110432;28;20431;-82
2022/04/27 11:33:49;;;;;;;29.37;27.40;;;;;;;;;;5110052;28;20791;-84
2022/04/27 11:36:24;;;;;;;30.07;27.90;;;;;;;;;;5110677;28;20505;-83
2022/04/27 11:38:51;;;;;;;29.63;27.63;;;;;;;;;;5110230;28;20445;-89
2022/04/27 11:41:20;;;;;;;31.07;28.87;;;;;;;;;;5110421;28;20457;-82
2022/04/27 11:43:47;;;;;;;30.63;28.30;;;;;;;;;;5110291;28;20416;-83
2022/04/27 11:46:16;;;;;;;29.87;27.77;;;;;;;;;;5110364;27;20442;-83
2022/04/27 11:48:48;;;;;;;29.97;27.70;;;;;;;;;;5109950;28;20947;-82
2022/04/27 11:51:15;;;;;;;30.93;28.60;;;;;;;;;;5110018;28;20437;-83
2022/04/27 11:53:45;;;;;;;30.10;27.60;;;;;;;;;;5109907;28;20408;-85
2022/04/27 11:56:12;;;;;;;29.57;27.40;;;;;;;;;;5110583;28;20437;-86
2022/04/27 11:58:40;;;;;;;31.40;28.97;;;;;;;;;;5111055;28;20460;-85
2022/04/27 12:01:08;;;;;;;29.97;27.97;;;;;;;;;;5110904;28;20478;-85
2022/04/27 12:03:42;;;;;;;29.77;27.77;;;;;;;;;;5110623;28;20423;-85
2022/04/27 12:06:09;;;;;;;28.77;26.87;;;;;;;;;;5103252;28;20412;-84
2022/04/27 12:08:42;;;;;;;30.27;28.27;;;;;;;;;;5096894;28;20468;-85
2022/04/27 12:11:10;;;;;;;30.70;28.53;;;;;;;;;;5096817;28;20811;-85
2022/04/27 12:13:37;;;;;;;32.20;29.13;;;;;;;;;;5096994;28;20762;-88
2022/04/27 12:16:06;;;;;;;31.13;28.93;;;;;;;;;;5095250;28;20484;-85
2022/04/27 12:18:33;;;;;;;31.07;28.53;;;;;;;;;;5097190;28;20453;-85
2022/04/27 12:21:02;;;;;;;32.20;29.80;;;;;;;;;;5096912;28;20419;-85
2022/04/27 12:23:37;;;;;;;31.33;29.23;;;;;;;;;;5096501;28;20421;-85
2022/04/27 12:26:06;;;;;;;33.40;30.80;;;;;;;;;;5096582;28;20473;-85
2022/04/27 12:28:34;;;;;;;32.20;29.90;;;;;;;;;;5096243;28;20448;-84
2022/04/27 12:31:05;;;;;;;32.53;30.30;;;;;;;;;;5096515;28;20429;-84
2022/04/27 12:33:34;;;;;;;33.00;30.60;;;;;;;;;;5094966;28;20913;-84
2022/04/27 12:38:59;;;;;;;32.07;29.70;;;;;;;;;;5096374;28;20426;-84
2022/04/27 12:41:30;;;;;;;33.83;31.47;;;;;;;;;;5096177;28;20412;-85
2022/04/27 12:44:02;;;;;;;29.97;27.97;;;;;;;;;;5095691;28;20501;-84
2022/04/27 12:46:30;;;;;;;32.40;30.00;;;;;;;;;;5095673;28;20434;-85
2022/04/27 12:49:01;;;;;;;32.53;30.23;;;;;;;;;;5095790;28;20492;-82
2022/04/27 12:51:32;;;;;;;31.17;29.03;;;;;;;;;;5095298;28;20412;-83
2022/04/27 12:53:59;;;;;;;31.93;29.40;;;;;;;;;;5095586;28;20542;-83
2022/04/27 12:56:32;;;;;;;33.10;30.43;;;;;;;;;;5096056;28;20418;-81
2022/04/27 12:59:04;;;;;;;31.77;29.60;;;;;;;;;;5094365;28;20817;-83
2022/04/27 13:01:31;;;;;;;32.10;29.60;;;;;;;;;;5095370;28;20465;-82
2022/04/27 13:03:59;;;;;;;32.33;29.93;;;;;;;;;;5095092;28;20815;-83
2022/04/27 13:06:29;;;;;;;31.70;29.70;;;;;;;;;;5095188;28;20411;-83
2022/04/27 13:11:55;;;;;;;32.40;29.90;;;;;;;;;;5094985;28;20427;-82
2022/04/27 13:11:57;;;;;;;33.43;31.03;;;;;;;;;;5094699;28;20412;-82
2022/04/27 13:14:25;;;;;;;33.23;31.10;;;;;;;;;;5094549;28;20412;-83
2022/04/27 13:16:52;;;;;;;33.63;31.13;;;;;;;;;;5094623;28;20493;-82
2022/04/27 13:19:20;;;;;;;31.80;29.60;;;;;;;;;;5094161;28;20495;-83
2022/04/27 13:21:48;;;;;;;32.63;30.23;;;;;;;;;;5094479;28;20423;-83
2022/04/27 13:24:17;;;;;;;33.70;30.93;;;;;;;;;;5094708;28;20454;-83
2022/04/27 13:26:45;;;;;;;34.07;31.60;;;;;;;;;;5094693;28;20803;-83
2022/04/27 13:29:12;;;;;;;32.80;30.37;;;;;;;;;;5094299;28;20438;-82
2022/04/27 13:31:39;;;;;;;32.50;30.00;;;;;;;;;;5094471;28;20412;-83
2022/04/27 13:34:07;;;;;;;32.17;29.87;;;;;;;;;;5094128;28;20935;-83
2022/04/27 13:36:34;;;;;;;31.40;29.20;;;;;;;;;;5094177;28;20459;-83
2022/04/27 13:39:02;;;;;;;32.80;30.57;;;;;;;;;;5094454;28;20789;-83
2022/04/27 13:41:30;;;;;;;35.50;33.10;;;;;;;;;;5094309;28;20430;-83
2022/04/27 13:43:58;;;;;;;33.93;31.33;;;;;;;;;;5094364;28;20424;-83
2022/04/27 13:46:25;;;;;;;35.03;32.73;;;;;;;;;;5094320;28;20441;-85
2022/04/27 13:48:53;;;;;;;31.73;29.63;;;;;;;;;;5080711;28;20474;-87
2022/04/27 13:51:20;;;;;;;35.60;33.00;;;;;;;;;;5093174;28;20420;-84
2022/04/27 13:53:47;;;;;;;32.47;30.07;;;;;;;;;;5093899;28;20430;-84
2022/04/27 13:56:15;;;;;;;35.87;33.20;;;;;;;;;;5094741;28;20480;-84
2022/04/27 13:58:44;;;;;;;34.13;31.60;;;;;;;;;;5095163;28;20424;-88
2022/04/27 14:01:11;;;;;;;33.33;30.97;;;;;;;;;;5094429;28;20460;-84
2022/04/27 14:03:39;;;;;;;32.47;30.20;;;;;;;;;;5093831;28;20454;-84
2022/04/27 14:06:06;;;;;;;34.27;31.77;;;;;;;;;;5094187;28;20860;-85
2022/04/27 14:08:33;;;;;;;34.43;31.83;;;;;;;;;;5093795;28;20419;-83
2022/04/27 14:11:01;;;;;;;35.90;33.40;;;;;;;;;;5093689;28;20438;-83
2022/04/27 14:13:27;;;;;;;35.13;32.10;;;;;;;;;;5093776;28;20465;-84
2022/04/27 14:18:41;;;;;;;34.70;32.00;;;;;;;;;;5093458;28;20445;-82
2022/04/27 14:21:08;;;;;;;34.20;31.90;;;;;;;;;;5093414;28;20412;-82
2022/04/27 14:23:35;;;;;;;34.67;32.07;;;;;;;;;;5093361;28;20415;-83
2022/04/27 14:26:02;;;;;;;34.13;31.53;;;;;;;;;;5093117;28;20882;-82
2022/04/27 14:28:31;;;;;;;35.20;32.73;;;;;;;;;;5093255;28;20444;-83
2022/04/27 14:31:01;;;;;;;33.77;31.37;;;;;;;;;;5093207;28;20458;-82
2022/04/27 14:33:28;;;;;;;33.87;31.40;;;;;;;;;;5093029;28;20411;-83
2022/04/27 14:35:56;;;;;;;35.53;32.67;;;;;;;;;;5093135;28;20853;-82
2022/04/27 14:38:23;;;;;;;35.20;32.70;;;;;;;;;;5092929;28;20861;-82
2022/04/27 14:40:50;;;;;;;33.73;31.30;;;;;;;;;;5093452;28;20428;-82
2022/04/27 14:43:18;;;;;;;35.03;32.43;;;;;;;;;;5093119;28;20405;-84
2022/04/27 14:45:46;;;;;;;32.77;30.43;;;;;;;;;;5093396;28;20438;-83
2022/04/27 14:48:15;;;;;;;33.40;30.60;;;;;;;;;;5092162;28;20886;-83
2022/04/27 14:50:42;;;;;;;34.17;31.80;;;;;;;;;;5093746;28;20529;-84